sensor_id;sensor_type;location;lat;lon;timestamp;pressure;altitude;pressure_sealevel;temperature;humidity
5753;BME280;2901;42.140;24.760;2022-09-19T00:03:39;99430.19;;;13.19;69.80
5753;BME280;2901;42.140;24.760;2022-09-19T00:06:06;99442.25;;;13.23;69.68
5753;BME280;2901;42.140;24.760;2022-09-19T00:08:32;99439.59;;;13.26;69.72
5753;BME280;2901;42.140;24.760;2022-09-19T00:11:00;99439.63;;;13.25;69.01
5753;BME280;2901;42.140;24.760;2022-09-19T00:13:26;99443.91;;;13.27;67.55
5753;BME280;2901;42.140;24.760;2022-09-19T00:15:52;99452.47;;;13.32;67.43
5753;BME280;2901;42.140;24.760;2022-09-19T00:18:17;99447.28;;;13.31;67.36
5753;BME280;2901;42.140;24.760;2022-09-19T00:20:43;99444.75;;;13.28;67.83
5753;BME280;2901;42.140;24.760;2022-09-19T00:23:12;99445.69;;;13.25;68.15
5753;BME280;2901;42.140;24.760;2022-09-19T00:26:02;99449.16;;;13.24;67.63
5753;BME280;2901;42.140;24.760;2022-09-19T00:28:29;99445.69;;;13.24;67.61
5753;BME280;2901;42.140;24.760;2022-09-19T00:30:55;99443.13;;;13.22;68.42
5753;BME280;2901;42.140;24.760;2022-09-19T00:33:21;99439.75;;;13.17;67.63
5753;BME280;2901;42.140;24.760;2022-09-19T00:35:47;99442.34;;;13.17;68.00
5753;BME280;2901;42.140;24.760;2022-09-19T00:38:28;99430.38;;;13.10;68.74
5753;BME280;2901;42.140;24.760;2022-09-19T00:40:56;99442.31;;;13.20;67.58
5753;BME280;2901;42.140;24.760;2022-09-19T00:43:23;99431.00;;;13.21;66.79
5753;BME280;2901;42.140;24.760;2022-09-19T00:45:51;99439.56;;;13.28;66.88
5753;BME280;2901;42.140;24.760;2022-09-19T00:48:19;99437.69;;;13.34;65.61
5753;BME280;2901;42.140;24.760;2022-09-19T00:50:52;99432.59;;;13.30;67.02
5753;BME280;2901;42.140;24.760;2022-09-19T00:53:22;99431.75;;;13.28;66.86
5753;BME280;2901;42.140;24.760;2022-09-19T00:55:53;99431.84;;;13.23;67.16
5753;BME280;2901;42.140;24.760;2022-09-19T00:58:28;99430.00;;;13.28;67.67
5753;BME280;2901;42.140;24.760;2022-09-19T01:00:55;99430.13;;;13.22;68.76
5753;BME280;2901;42.140;24.760;2022-09-19T01:03:21;99431.91;;;13.20;68.75
5753;BME280;2901;42.140;24.760;2022-09-19T01:05:59;99429.31;;;13.19;69.57
5753;BME280;2901;42.140;24.760;2022-09-19T01:14:34;99424.28;;;13.08;70.92
5753;BME280;2901;42.140;24.760;2022-09-19T01:17:17;99426.13;;;13.03;70.50
5753;BME280;2901;42.140;24.760;2022-09-19T01:25:35;99421.97;;;12.93;70.92
5753;BME280;2901;42.140;24.760;2022-09-19T01:28:15;99421.78;;;13.02;70.65
5753;BME280;2901;42.140;24.760;2022-09-19T01:31:13;99423.38;;;13.12;70.28
5753;BME280;2901;42.140;24.760;2022-09-19T01:33:51;99426.78;;;13.14;70.21
5753;BME280;2901;42.140;24.760;2022-09-19T01:36:21;99429.47;;;13.11;69.89
5753;BME280;2901;42.140;24.760;2022-09-19T01:38:52;99428.78;;;13.00;71.13
5753;BME280;2901;42.140;24.760;2022-09-19T01:41:18;99424.44;;;12.99;71.33
5753;BME280;2901;42.140;24.760;2022-09-19T01:43:47;99423.69;;;12.92;72.08
5753;BME280;2901;42.140;24.760;2022-09-19T01:46:23;99430.75;;;12.84;71.83
5753;BME280;2901;42.140;24.760;2022-09-19T01:51:48;99432.59;;;12.78;72.29
5753;BME280;2901;42.140;24.760;2022-09-19T01:56:56;99435.22;;;12.76;74.88
5753;BME280;2901;42.140;24.760;2022-09-19T02:02:32;99421.41;;;12.74;76.80
5753;BME280;2901;42.140;24.760;2022-09-19T02:05:12;99427.59;;;12.66;76.84
5753;BME280;2901;42.140;24.760;2022-09-19T02:10:22;99422.72;;;12.47;76.96
5753;BME280;2901;42.140;24.760;2022-09-19T02:12:52;99434.91;;;12.42;77.87
5753;BME280;2901;42.140;24.760;2022-09-19T02:15:22;99428.13;;;12.32;77.77
5753;BME280;2901;42.140;24.760;2022-09-19T02:18:35;99434.41;;;12.18;79.01
5753;BME280;2901;42.140;24.760;2022-09-19T02:21:09;99434.44;;;12.15;79.16
5753;BME280;2901;42.140;24.760;2022-09-19T02:23:43;99433.59;;;12.14;79.71
5753;BME280;2901;42.140;24.760;2022-09-19T02:26:14;99428.44;;;12.11;78.78
5753;BME280;2901;42.140;24.760;2022-09-19T02:28:48;99422.44;;;12.06;78.39
5753;BME280;2901;42.140;24.760;2022-09-19T02:31:20;99436.22;;;12.10;78.55
5753;BME280;2901;42.140;24.760;2022-09-19T02:33:50;99423.28;;;12.08;78.07
5753;BME280;2901;42.140;24.760;2022-09-19T02:36:26;99425.72;;;12.19;77.59
5753;BME280;2901;42.140;24.760;2022-09-19T02:41:30;99438.69;;;12.20;76.81
5753;BME280;2901;42.140;24.760;2022-09-19T02:47:16;99438.78;;;12.14;75.05
5753;BME280;2901;42.140;24.760;2022-09-19T02:49:49;99443.06;;;12.18;75.63
5753;BME280;2901;42.140;24.760;2022-09-19T02:52:33;99436.91;;;12.22;75.06
5753;BME280;2901;42.140;24.760;2022-09-19T02:55:08;99436.06;;;12.22;74.27
5753;BME280;2901;42.140;24.760;2022-09-19T02:57:39;99449.78;;;12.31;75.21
5753;BME280;2901;42.140;24.760;2022-09-19T03:00:06;99446.34;;;12.29;73.36
5753;BME280;2901;42.140;24.760;2022-09-19T03:02:38;99448.94;;;12.29;72.58
5753;BME280;2901;42.140;24.760;2022-09-19T03:05:15;99434.47;;;12.13;71.65
5753;BME280;2901;42.140;24.760;2022-09-19T03:07:55;99454.47;;;12.05;73.74
5753;BME280;2901;42.140;24.760;2022-09-19T03:10:30;99452.94;;;11.92;73.86
5753;BME280;2901;42.140;24.760;2022-09-19T03:13:01;99446.88;;;11.91;74.63
5753;BME280;2901;42.140;24.760;2022-09-19T03:15:36;99454.56;;;11.96;76.11
5753;BME280;2901;42.140;24.760;2022-09-19T03:18:06;99451.13;;;11.95;76.66
5753;BME280;2901;42.140;24.760;2022-09-19T03:20:37;99449.50;;;11.87;76.15
5753;BME280;2901;42.140;24.760;2022-09-19T03:23:04;99451.31;;;11.79;76.51
5753;BME280;2901;42.140;24.760;2022-09-19T03:25:31;99455.72;;;11.75;76.89
5753;BME280;2901;42.140;24.760;2022-09-19T03:27:57;99454.91;;;11.72;77.03
5753;BME280;2901;42.140;24.760;2022-09-19T03:30:22;99462.69;;;11.72;77.47
5753;BME280;2901;42.140;24.760;2022-09-19T03:32:48;99454.91;;;11.66;77.50
5753;BME280;2901;42.140;24.760;2022-09-19T03:35:15;99445.41;;;11.66;78.07
5753;BME280;2901;42.140;24.760;2022-09-19T03:37:40;99444.53;;;11.67;78.20
5753;BME280;2901;42.140;24.760;2022-09-19T03:40:06;99451.56;;;11.56;77.57
5753;BME280;2901;42.140;24.760;2022-09-19T03:42:32;99443.78;;;11.58;77.42
5753;BME280;2901;42.140;24.760;2022-09-19T03:45:00;99449.00;;;11.55;78.57
5753;BME280;2901;42.140;24.760;2022-09-19T03:47:25;99450.72;;;11.56;77.27
5753;BME280;2901;42.140;24.760;2022-09-19T03:49:51;99452.47;;;11.55;77.45
5753;BME280;2901;42.140;24.760;2022-09-19T03:52:19;99447.28;;;11.55;77.16
5753;BME280;2901;42.140;24.760;2022-09-19T03:54:45;99456.75;;;11.58;76.65
5753;BME280;2901;42.140;24.760;2022-09-19T03:57:12;99433.53;;;11.49;76.65
5753;BME280;2901;42.140;24.760;2022-09-19T03:59:39;99451.56;;;11.58;76.27
5753;BME280;2901;42.140;24.760;2022-09-19T04:02:07;99448.94;;;11.61;76.01
5753;BME280;2901;42.140;24.760;2022-09-19T04:04:33;99458.44;;;11.60;76.53
5753;BME280;2901;42.140;24.760;2022-09-19T04:06:59;99465.31;;;11.64;76.15
5753;BME280;2901;42.140;24.760;2022-09-19T04:09:26;99444.56;;;11.64;77.47
5753;BME280;2901;42.140;24.760;2022-09-19T04:11:52;99446.25;;;11.67;76.48
5753;BME280;2901;42.140;24.760;2022-09-19T04:14:18;99449.72;;;11.69;76.96
5753;BME280;2901;42.140;24.760;2022-09-19T04:16:43;99451.44;;;11.67;76.40
5753;BME280;2901;42.140;24.760;2022-09-19T04:19:09;99447.06;;;11.75;76.47
5753;BME280;2901;42.140;24.760;2022-09-19T04:21:37;99449.56;;;11.84;77.36
5753;BME280;2901;42.140;24.760;2022-09-19T04:24:10;99456.44;;;11.88;77.06
5753;BME280;2901;42.140;24.760;2022-09-19T04:26:36;99451.19;;;11.91;75.78
5753;BME280;2901;42.140;24.760;2022-09-19T04:29:02;99461.50;;;11.97;75.94
5753;BME280;2901;42.140;24.760;2022-09-19T04:31:29;99450.28;;;11.95;75.47
5753;BME280;2901;42.140;24.760;2022-09-19T04:34:00;99455.41;;;12.00;76.02
5753;BME280;2901;42.140;24.760;2022-09-19T04:36:27;99447.66;;;11.98;76.11
5753;BME280;2901;42.140;24.760;2022-09-19T04:38:58;99446.75;;;12.01;75.85
5753;BME280;2901;42.140;24.760;2022-09-19T04:41:29;99452.88;;;11.95;74.56
5753;BME280;2901;42.140;24.760;2022-09-19T04:43:55;99451.13;;;11.95;74.29
5753;BME280;2901;42.140;24.760;2022-09-19T04:46:22;99463.25;;;11.95;74.21
5753;BME280;2901;42.140;24.760;2022-09-19T04:48:48;99454.63;;;11.93;74.08
5753;BME280;2901;42.140;24.760;2022-09-19T04:51:13;99450.28;;;11.95;74.89
5753;BME280;2901;42.140;24.760;2022-09-19T04:53:39;99445.78;;;12.08;75.36
5753;BME280;2901;42.140;24.760;2022-09-19T04:56:04;99450.94;;;12.11;73.89
5753;BME280;2901;42.140;24.760;2022-09-19T04:58:30;99454.31;;;12.17;74.48
5753;BME280;2901;42.140;24.760;2022-09-19T05:00:55;99454.25;;;12.20;75.50
5753;BME280;2901;42.140;24.760;2022-09-19T05:03:22;99459.31;;;12.29;74.67
5753;BME280;2901;42.140;24.760;2022-09-19T05:05:51;99455.75;;;12.36;74.04
5753;BME280;2901;42.140;24.760;2022-09-19T05:08:25;99460.91;;;12.39;76.13
5753;BME280;2901;42.140;24.760;2022-09-19T05:10:55;99450.53;;;12.39;78.45
5753;BME280;2901;42.140;24.760;2022-09-19T05:13:22;99465.19;;;12.42;78.90
5753;BME280;2901;42.140;24.760;2022-09-19T05:15:48;99458.25;;;12.44;80.15
5753;BME280;2901;42.140;24.760;2022-09-19T05:18:17;99464.13;;;12.57;80.70
5753;BME280;2901;42.140;24.760;2022-09-19T05:20:45;99465.69;;;12.67;79.37
5753;BME280;2901;42.140;24.760;2022-09-19T05:23:10;99466.47;;;12.73;79.32
5753;BME280;2901;42.140;24.760;2022-09-19T05:25:37;99468.09;;;12.80;79.53
5753;BME280;2901;42.140;24.760;2022-09-19T05:28:06;99458.28;;;12.96;78.67
5753;BME280;2901;42.140;24.760;2022-09-19T05:30:38;99463.31;;;13.05;77.40
5753;BME280;2901;42.140;24.760;2022-09-19T05:33:05;99461.66;;;13.01;77.89
5753;BME280;2901;42.140;24.760;2022-09-19T05:35:32;99456.47;;;13.01;78.18
5753;BME280;2901;42.140;24.760;2022-09-19T05:37:58;99462.41;;;13.08;77.46
5753;BME280;2901;42.140;24.760;2022-09-19T05:40:25;99467.59;;;13.08;77.83
5753;BME280;2901;42.140;24.760;2022-09-19T05:42:51;99467.72;;;13.03;77.93
5753;BME280;2901;42.140;24.760;2022-09-19T05:45:17;99460.59;;;13.14;77.24
5753;BME280;2901;42.140;24.760;2022-09-19T05:47:43;99472.84;;;13.09;78.21
5753;BME280;2901;42.140;24.760;2022-09-19T05:50:12;99472.00;;;13.04;78.97
5753;BME280;2901;42.140;24.760;2022-09-19T05:52:41;99480.53;;;13.15;79.12
5753;BME280;2901;42.140;24.760;2022-09-19T05:55:26;99477.69;;;13.27;76.00
5753;BME280;2901;42.140;24.760;2022-09-19T05:57:53;99476.75;;;13.31;75.39
5753;BME280;2901;42.140;24.760;2022-09-19T06:00:20;99480.91;;;13.43;74.46
5753;BME280;2901;42.140;24.760;2022-09-19T06:02:57;99473.75;;;13.54;73.95
5753;BME280;2901;42.140;24.760;2022-09-19T06:05:25;99474.34;;;13.67;72.29
5753;BME280;2901;42.140;24.760;2022-09-19T06:07:52;99475.16;;;13.70;70.13
5753;BME280;2901;42.140;24.760;2022-09-19T06:10:18;99476.94;;;13.68;72.48
5753;BME280;2901;42.140;24.760;2022-09-19T06:12:44;99483.25;;;13.57;72.87
5753;BME280;2901;42.140;24.760;2022-09-19T06:15:10;99474.59;;;13.55;73.67
5753;BME280;2901;42.140;24.760;2022-09-19T06:17:36;99491.75;;;13.65;73.13
5753;BME280;2901;42.140;24.760;2022-09-19T06:20:01;99478.81;;;13.62;72.45
5753;BME280;2901;42.140;24.760;2022-09-19T06:22:26;99483.69;;;13.77;73.11
5753;BME280;2901;42.140;24.760;2022-09-19T06:24:52;99481.88;;;13.82;72.72
5753;BME280;2901;42.140;24.760;2022-09-19T06:27:17;99489.50;;;13.91;72.95
5753;BME280;2901;42.140;24.760;2022-09-19T06:29:43;99485.75;;;14.04;71.54
5753;BME280;2901;42.140;24.760;2022-09-19T06:32:08;99489.06;;;14.12;72.05
5753;BME280;2901;42.140;24.760;2022-09-19T06:34:34;99489.94;;;14.13;70.77
5753;BME280;2901;42.140;24.760;2022-09-19T06:37:00;99497.56;;;14.20;69.80
5753;BME280;2901;42.140;24.760;2022-09-19T06:39:25;99488.97;;;14.17;69.80
5753;BME280;2901;42.140;24.760;2022-09-19T06:41:51;99493.00;;;14.31;69.61
5753;BME280;2901;42.140;24.760;2022-09-19T06:44:16;99484.88;;;14.46;70.39
5753;BME280;2901;42.140;24.760;2022-09-19T06:46:42;99487.84;;;14.68;70.52
5753;BME280;2901;42.140;24.760;2022-09-19T06:49:08;99492.63;;;14.86;71.63
5753;BME280;2901;42.140;24.760;2022-09-19T06:51:34;99488.66;;;15.07;71.61
5753;BME280;2901;42.140;24.760;2022-09-19T06:54:00;99482.84;;;15.30;72.00
5753;BME280;2901;42.140;24.760;2022-09-19T06:56:25;99487.50;;;15.52;71.05
5753;BME280;2901;42.140;24.760;2022-09-19T06:58:51;99485.38;;;15.67;69.54
5753;BME280;2901;42.140;24.760;2022-09-19T07:01:16;99491.41;;;15.69;69.24
5753;BME280;2901;42.140;24.760;2022-09-19T07:03:43;99486.66;;;15.83;67.92
5753;BME280;2901;42.140;24.760;2022-09-19T07:06:08;99484.84;;;15.85;68.28
5753;BME280;2901;42.140;24.760;2022-09-19T07:08:34;99479.31;;;15.97;67.93
5753;BME280;2901;42.140;24.760;2022-09-19T07:10:59;99480.47;;;16.16;65.98
5753;BME280;2901;42.140;24.760;2022-09-19T07:13:25;99481.06;;;16.26;65.86
5753;BME280;2901;42.140;24.760;2022-09-19T07:15:50;99477.03;;;16.43;64.95
5753;BME280;2901;42.140;24.760;2022-09-19T07:18:16;99471.53;;;16.52;63.11
5753;BME280;2901;42.140;24.760;2022-09-19T07:20:41;99481.00;;;16.56;62.14
5753;BME280;2901;42.140;24.760;2022-09-19T07:23:18;99468.84;;;16.55;61.89
5753;BME280;2901;42.140;24.760;2022-09-19T07:25:45;99464.41;;;16.59;62.46
5753;BME280;2901;42.140;24.760;2022-09-19T07:28:15;99462.53;;;16.63;62.39
5753;BME280;2901;42.140;24.760;2022-09-19T07:30:42;99466.75;;;16.67;61.11
5753;BME280;2901;42.140;24.760;2022-09-19T07:33:13;99463.38;;;16.63;61.04
5753;BME280;2901;42.140;24.760;2022-09-19T07:35:39;99458.72;;;16.73;61.42
5753;BME280;2901;42.140;24.760;2022-09-19T07:38:08;99461.59;;;16.91;60.46
5753;BME280;2901;42.140;24.760;2022-09-19T07:40:34;99461.84;;;17.10;59.07
5753;BME280;2901;42.140;24.760;2022-09-19T07:43:03;99458.72;;;17.25;58.17
5753;BME280;2901;42.140;24.760;2022-09-19T07:45:32;99465.59;;;17.28;56.19
5753;BME280;2901;42.140;24.760;2022-09-19T07:47:58;99459.06;;;17.39;57.43
5753;BME280;2901;42.140;24.760;2022-09-19T07:50:23;99454.34;;;17.50;56.89
5753;BME280;2901;42.140;24.760;2022-09-19T07:53:01;99447.78;;;17.63;57.49
5753;BME280;2901;42.140;24.760;2022-09-19T07:55:27;99450.41;;;17.63;54.50
5753;BME280;2901;42.140;24.760;2022-09-19T07:57:55;99448.75;;;17.61;54.85
5753;BME280;2901;42.140;24.760;2022-09-19T08:00:24;99453.59;;;17.72;54.68
5753;BME280;2901;42.140;24.760;2022-09-19T08:02:54;99447.72;;;17.88;54.20
5753;BME280;2901;42.140;24.760;2022-09-19T08:05:20;99444.59;;;18.02;53.93
5753;BME280;2901;42.140;24.760;2022-09-19T08:07:45;99440.28;;;18.24;52.36
5753;BME280;2901;42.140;24.760;2022-09-19T08:10:11;99435.03;;;18.24;51.78
5753;BME280;2901;42.140;24.760;2022-09-19T08:12:37;99435.16;;;18.43;50.69
5753;BME280;2901;42.140;24.760;2022-09-19T08:15:02;99435.72;;;18.51;51.65
5753;BME280;2901;42.140;24.760;2022-09-19T08:17:28;99423.63;;;18.70;52.27
5753;BME280;2901;42.140;24.760;2022-09-19T08:19:54;99424.69;;;18.86;53.38
5753;BME280;2901;42.140;24.760;2022-09-19T08:22:20;99420.69;;;18.98;52.10
5753;BME280;2901;42.140;24.760;2022-09-19T08:24:45;99418.63;;;19.06;52.66
5753;BME280;2901;42.140;24.760;2022-09-19T08:27:11;99417.09;;;19.21;50.72
5753;BME280;2901;42.140;24.760;2022-09-19T08:29:36;99403.38;;;19.34;50.75
5753;BME280;2901;42.140;24.760;2022-09-19T08:32:04;99405.75;;;19.40;49.39
5753;BME280;2901;42.140;24.760;2022-09-19T08:34:29;99405.63;;;19.43;49.71
5753;BME280;2901;42.140;24.760;2022-09-19T08:36:55;99405.16;;;19.54;49.76
5753;BME280;2901;42.140;24.760;2022-09-19T08:39:25;99400.47;;;19.60;49.62
5753;BME280;2901;42.140;24.760;2022-09-19T08:42:16;99398.53;;;19.65;48.63
5753;BME280;2901;42.140;24.760;2022-09-19T08:47:42;99394.28;;;19.82;46.61
5753;BME280;2901;42.140;24.760;2022-09-19T08:50:24;99395.47;;;19.75;46.07
5753;BME280;2901;42.140;24.760;2022-09-19T08:52:56;99386.25;;;19.85;46.18
5753;BME280;2901;42.140;24.760;2022-09-19T08:55:26;99379.56;;;19.96;45.49
5753;BME280;2901;42.140;24.760;2022-09-19T08:57:57;99379.78;;;20.10;45.71
5753;BME280;2901;42.140;24.760;2022-09-19T09:00:35;99372.09;;;20.25;44.62
5753;BME280;2901;42.140;24.760;2022-09-19T09:03:07;99373.78;;;20.44;42.83
5753;BME280;2901;42.140;24.760;2022-09-19T09:16:40;99361.44;;;20.63;43.56
5753;BME280;2901;42.140;24.760;2022-09-19T09:25:14;99339.38;;;19.94;43.67
5753;BME280;2901;42.140;24.760;2022-09-19T09:28:10;99336.94;;;20.08;42.16
5753;BME280;2901;42.140;24.760;2022-09-19T09:30:42;99335.50;;;20.20;41.93
5753;BME280;2901;42.140;24.760;2022-09-19T09:33:22;99327.88;;;20.33;41.38
5753;BME280;2901;42.140;24.760;2022-09-19T09:35:54;99321.72;;;20.34;41.52
5753;BME280;2901;42.140;24.760;2022-09-19T09:38:27;99313.59;;;20.55;39.65
5753;BME280;2901;42.140;24.760;2022-09-19T09:41:11;99322.97;;;20.78;39.43
5753;BME280;2901;42.140;24.760;2022-09-19T09:49:28;99314.00;;;21.16;36.37
5753;BME280;2901;42.140;24.760;2022-09-19T09:58:18;99301.16;;;21.74;35.13
5753;BME280;2901;42.140;24.760;2022-09-19T10:00:50;99299.81;;;21.83;34.73
5753;BME280;2901;42.140;24.760;2022-09-19T10:06:35;99297.16;;;21.67;33.73
5753;BME280;2901;42.140;24.760;2022-09-19T10:09:13;99285.84;;;21.65;32.77
5753;BME280;2901;42.140;24.760;2022-09-19T10:14:22;99283.16;;;21.83;30.21
5753;BME280;2901;42.140;24.760;2022-09-19T10:16:49;99276.66;;;21.88;30.56
5753;BME280;2901;42.140;24.760;2022-09-19T10:19:33;99273.13;;;22.05;30.96
5753;BME280;2901;42.140;24.760;2022-09-19T10:22:00;99265.97;;;22.22;30.26
5753;BME280;2901;42.140;24.760;2022-09-19T10:24:45;99270.69;;;22.32;30.47
5753;BME280;2901;42.140;24.760;2022-09-19T10:27:23;99264.38;;;22.34;31.16
5753;BME280;2901;42.140;24.760;2022-09-19T10:30:16;99252.53;;;22.41;31.30
5753;BME280;2901;42.140;24.760;2022-09-19T10:32:44;99256.09;;;22.40;29.61
5753;BME280;2901;42.140;24.760;2022-09-19T10:35:33;99256.91;;;22.27;29.63
5753;BME280;2901;42.140;24.760;2022-09-19T10:40:26;99251.66;;;22.11;28.72
5753;BME280;2901;42.140;24.760;2022-09-19T10:42:54;99247.59;;;22.05;28.71
5753;BME280;2901;42.140;24.760;2022-09-19T10:45:27;99242.03;;;22.10;29.15
5753;BME280;2901;42.140;24.760;2022-09-19T10:48:21;99246.22;;;22.14;28.47
5753;BME280;2901;42.140;24.760;2022-09-19T10:50:52;99237.72;;;22.09;28.69
5753;BME280;2901;42.140;24.760;2022-09-19T10:53:30;99233.44;;;22.22;28.78
5753;BME280;2901;42.140;24.760;2022-09-19T10:56:03;99238.84;;;22.35;29.04
5753;BME280;2901;42.140;24.760;2022-09-19T10:58:30;99228.53;;;22.46;29.96
5753;BME280;2901;42.140;24.760;2022-09-19T11:01:01;99231.38;;;22.27;29.38
5753;BME280;2901;42.140;24.760;2022-09-19T11:03:35;99210.94;;;22.31;29.58
5753;BME280;2901;42.140;24.760;2022-09-19T11:06:12;99219.28;;;22.39;30.19
5753;BME280;2901;42.140;24.760;2022-09-19T11:08:57;99212.66;;;22.32;29.07
5753;BME280;2901;42.140;24.760;2022-09-19T11:30:25;99182.00;;;22.73;31.58
5753;BME280;2901;42.140;24.760;2022-09-19T11:35:43;99175.81;;;22.88;31.75
5753;BME280;2901;42.140;24.760;2022-09-19T11:57:41;99156.56;;;23.00;30.43
5753;BME280;2901;42.140;24.760;2022-09-19T12:03:03;99144.72;;;23.20;31.39
5753;BME280;2901;42.140;24.760;2022-09-19T12:10:59;99142.03;;;22.93;31.77
5753;BME280;2901;42.140;24.760;2022-09-19T12:16:04;99141.28;;;22.91;31.76
5753;BME280;2901;42.140;24.760;2022-09-19T12:18:42;99136.09;;;22.90;31.93
5753;BME280;2901;42.140;24.760;2022-09-19T12:21:11;99132.59;;;23.03;31.39
5753;BME280;2901;42.140;24.760;2022-09-19T12:23:46;99130.78;;;23.18;30.76
5753;BME280;2901;42.140;24.760;2022-09-19T12:26:51;99129.66;;;23.49;31.37
5753;BME280;2901;42.140;24.760;2022-09-19T12:29:21;99127.53;;;23.41;31.29
5753;BME280;2901;42.140;24.760;2022-09-19T12:31:54;99119.34;;;23.58;30.92
5753;BME280;2901;42.140;24.760;2022-09-19T12:34:44;99120.97;;;23.61;31.20
5753;BME280;2901;42.140;24.760;2022-09-19T12:37:36;99121.91;;;23.60;30.55
5753;BME280;2901;42.140;24.760;2022-09-19T12:42:52;99112.66;;;23.80;31.39
5753;BME280;2901;42.140;24.760;2022-09-19T12:47:54;99116.22;;;23.78;31.05
5753;BME280;2901;42.140;24.760;2022-09-19T12:50:29;99106.72;;;23.76;31.21
5753;BME280;2901;42.140;24.760;2022-09-19T12:53:22;99086.69;;;23.59;31.55
5753;BME280;2901;42.140;24.760;2022-09-19T12:55:58;99098.97;;;23.73;31.69
5753;BME280;2901;42.140;24.760;2022-09-19T12:58:32;99095.41;;;23.74;31.61
5753;BME280;2901;42.140;24.760;2022-09-19T13:06:34;99095.50;;;23.85;30.72
5753;BME280;2901;42.140;24.760;2022-09-19T13:11:43;99087.63;;;24.10;30.69
5753;BME280;2901;42.140;24.760;2022-09-19T13:14:19;99086.34;;;24.03;31.29
5753;BME280;2901;42.140;24.760;2022-09-19T13:16:49;99078.72;;;23.99;31.38
5753;BME280;2901;42.140;24.760;2022-09-19T13:19:38;99084.09;;;23.85;31.56
5753;BME280;2901;42.140;24.760;2022-09-19T13:22:23;99077.84;;;23.73;31.65
5753;BME280;2901;42.140;24.760;2022-09-19T13:25:17;99070.97;;;23.70;31.94
5753;BME280;2901;42.140;24.760;2022-09-19T13:27:44;99075.50;;;23.81;32.25
5753;BME280;2901;42.140;24.760;2022-09-19T13:33:25;99070.56;;;24.02;32.23
5753;BME280;2901;42.140;24.760;2022-09-19T13:35:53;99066.81;;;24.18;32.19
5753;BME280;2901;42.140;24.760;2022-09-19T13:38:24;99071.25;;;24.31;31.33
5753;BME280;2901;42.140;24.760;2022-09-19T13:41:21;99065.81;;;24.07;32.06
5753;BME280;2901;42.140;24.760;2022-09-19T13:47:03;99070.03;;;23.84;32.13
5753;BME280;2901;42.140;24.760;2022-09-19T13:49:37;99068.41;;;23.82;31.95
5753;BME280;2901;42.140;24.760;2022-09-19T13:52:08;99058.19;;;23.77;32.84
5753;BME280;2901;42.140;24.760;2022-09-19T13:54:58;99056.69;;;23.73;32.65
5753;BME280;2901;42.140;24.760;2022-09-19T13:57:27;99052.25;;;23.73;32.60
5753;BME280;2901;42.140;24.760;2022-09-19T13:59:56;99041.31;;;23.65;32.81
5753;BME280;2901;42.140;24.760;2022-09-19T14:02:29;99039.03;;;23.73;32.31
5753;BME280;2901;42.140;24.760;2022-09-19T14:05:00;99034.88;;;23.69;32.48
5753;BME280;2901;42.140;24.760;2022-09-19T14:10:38;99041.66;;;23.73;33.35
5753;BME280;2901;42.140;24.760;2022-09-19T14:23:40;99036.81;;;23.93;32.70
5753;BME280;2901;42.140;24.760;2022-09-19T14:36:48;99043.09;;;24.42;32.65
5753;BME280;2901;42.140;24.760;2022-09-19T14:40:13;99042.66;;;24.48;33.00
5753;BME280;2901;42.140;24.760;2022-09-19T14:48:18;99044.03;;;24.41;32.23
5753;BME280;2901;42.140;24.760;2022-09-19T14:50:50;99036.53;;;24.35;31.73
5753;BME280;2901;42.140;24.760;2022-09-19T14:53:22;99036.09;;;24.28;32.96
5753;BME280;2901;42.140;24.760;2022-09-19T14:55:56;99034.41;;;24.27;32.89
5753;BME280;2901;42.140;24.760;2022-09-19T14:58:25;99038.75;;;24.16;33.14
5753;BME280;2901;42.140;24.760;2022-09-19T15:00:56;99040.19;;;24.07;34.04
5753;BME280;2901;42.140;24.760;2022-09-19T15:03:25;99036.94;;;24.04;33.63
5753;BME280;2901;42.140;24.760;2022-09-19T15:05:51;99040.53;;;24.03;33.68
5753;BME280;2901;42.140;24.760;2022-09-19T15:08:30;99040.97;;;23.97;34.21
5753;BME280;2901;42.140;24.760;2022-09-19T15:10:57;99039.47;;;23.93;33.55
5753;BME280;2901;42.140;24.760;2022-09-19T15:13:25;99040.31;;;23.81;33.38
5753;BME280;2901;42.140;24.760;2022-09-19T15:16:03;99043.25;;;23.89;33.49
5753;BME280;2901;42.140;24.760;2022-09-19T15:18:37;99034.59;;;23.87;33.77
5753;BME280;2901;42.140;24.760;2022-09-19T15:21:11;99038.81;;;23.89;34.32
5753;BME280;2901;42.140;24.760;2022-09-19T15:23:40;99033.53;;;23.76;33.74
5753;BME280;2901;42.140;24.760;2022-09-19T15:26:16;99031.59;;;23.78;33.39
5753;BME280;2901;42.140;24.760;2022-09-19T15:29:00;99032.69;;;23.76;33.46
5753;BME280;2901;42.140;24.760;2022-09-19T15:31:29;99025.16;;;23.70;33.61
5753;BME280;2901;42.140;24.760;2022-09-19T15:34:09;99032.75;;;23.74;33.69
5753;BME280;2901;42.140;24.760;2022-09-19T15:36:36;99032.25;;;23.69;33.90
5753;BME280;2901;42.140;24.760;2022-09-19T15:39:04;99036.69;;;23.69;35.18
5753;BME280;2901;42.140;24.760;2022-09-19T15:41:30;99041.34;;;23.78;35.27
5753;BME280;2901;42.140;24.760;2022-09-19T15:43:57;99035.41;;;23.74;36.09
5753;BME280;2901;42.140;24.760;2022-09-19T15:49:00;99033.53;;;23.76;36.54
5753;BME280;2901;42.140;24.760;2022-09-19T15:51:27;99039.22;;;23.70;36.24
5753;BME280;2901;42.140;24.760;2022-09-19T15:53:53;99038.22;;;23.46;35.23
5753;BME280;2901;42.140;24.760;2022-09-19T15:56:21;99033.34;;;23.40;35.22
5753;BME280;2901;42.140;24.760;2022-09-19T15:58:59;99021.25;;;23.36;35.91
5753;BME280;2901;42.140;24.760;2022-09-19T16:01:27;99032.41;;;23.41;37.69
5753;BME280;2901;42.140;24.760;2022-09-19T16:04:11;99032.63;;;23.24;37.44
5753;BME280;2901;42.140;24.760;2022-09-19T16:09:38;99039.81;;;22.95;36.84
5753;BME280;2901;42.140;24.760;2022-09-19T16:12:34;99038.03;;;22.82;38.22
5753;BME280;2901;42.140;24.760;2022-09-19T16:15:35;99036.50;;;22.63;38.36
5753;BME280;2901;42.140;24.760;2022-09-19T16:18:13;99037.84;;;22.56;38.26
5753;BME280;2901;42.140;24.760;2022-09-19T16:20:47;99034.84;;;22.48;37.79
5753;BME280;2901;42.140;24.760;2022-09-19T16:23:20;99042.38;;;22.40;38.26
5753;BME280;2901;42.140;24.760;2022-09-19T16:33:56;99048.22;;;22.03;39.73
5753;BME280;2901;42.140;24.760;2022-09-19T16:36:24;99050.28;;;21.98;40.00
5753;BME280;2901;42.140;24.760;2022-09-19T16:49:33;99068.59;;;21.55;41.70